Time;durP1;ratioP1;P1;durP2;ratioP2;P2;SDS_P1;SDS_P2;PMS_P1;PMS_P2;Temp;Humidity;BMP_temperature;BMP_pressure;BME280_temperature;BME280_humidity;BME280_pressure;Samples;Min_cycle;Max_cycle;Signal;HPM_P1;HPM_P2
2021/11/20 00:01:42;;;;;;;6.35;4.68;;;;;;;13.87;55.89;102573.44;4223420;28;20090;-72
2021/11/20 00:03:45;;;;;;;7.72;4.82;;;;;;;14.10;55.86;102612.66;4223503;28;20075;-72
2021/11/20 00:05:51;;;;;;;6.35;4.47;;;;;;;13.74;55.54;102560.47;4223135;28;20059;-72
2021/11/20 00:07:53;;;;;;;6.78;4.45;;;;;;;14.33;55.80;102656.31;4223042;28;20048;-71
2021/11/20 00:09:56;;;;;;;7.03;4.10;;;;;;;14.30;55.60;102654.63;4222965;28;20058;-71
2021/11/20 00:12:07;;;;;;;7.38;4.53;;;;;;;14.22;55.87;102641.53;4222068;28;20110;-71
2021/11/20 00:14:11;;;;;;;6.63;4.10;;;;;;;14.19;55.85;102632.78;4223638;28;20325;-71
2021/11/20 00:16:13;;;;;;;6.70;4.40;;;;;;;13.57;55.71;102539.63;4223005;28;20302;-73
2021/11/20 00:18:17;;;;;;;6.80;4.50;;;;;;;13.87;55.99;102576.94;4223031;28;20040;-72
2021/11/20 00:20:21;;;;;;;6.45;4.20;;;;;;;13.79;55.79;102565.66;4223352;28;20085;-71
2021/11/20 00:22:29;;;;;;;7.20;4.53;;;;;;;14.04;55.69;102605.72;4222997;28;20065;-71
2021/11/20 00:24:38;;;;;;;6.50;4.10;;;;;;;14.00;55.97;102595.25;4223047;28;20377;-72
2021/11/20 00:26:40;;;;;;;6.18;3.85;;;;;;;13.91;55.82;102580.41;4222824;28;20047;-71
2021/11/20 00:31:06;;;;;;;6.88;4.22;;;;;;;13.79;55.62;102556.84;4222955;28;20077;-71
2021/11/20 00:33:10;;;;;;;5.85;3.75;;;;;;;14.26;55.94;102633.53;4222876;28;20056;-68
2021/11/20 00:35:16;;;;;;;6.18;3.63;;;;;;;13.91;55.86;102577.75;4221866;28;20301;-71
2021/11/20 00:37:18;;;;;;;6.68;3.97;;;;;;;13.56;55.81;102516.75;4222697;28;20040;-70
2021/11/20 00:39:24;;;;;;;6.32;3.80;;;;;;;14.01;55.78;102584.63;4222801;28;20048;-74
2021/11/20 00:41:29;;;;;;;6.75;3.65;;;;;;;14.21;56.12;102618.59;4222795;28;20051;-71
2021/11/20 00:43:31;;;;;;;6.68;3.92;;;;;;;14.14;55.98;102601.09;4222859;28;20044;-72
2021/11/20 00:45:34;;;;;;;6.88;4.10;;;;;;;14.14;55.72;102610.84;4222855;28;20044;-71
2021/11/20 00:47:37;;;;;;;6.88;3.97;;;;;;;13.78;55.75;102539.22;4222382;28;20322;-71
2021/11/20 00:49:39;;;;;;;5.78;3.67;;;;;;;13.80;55.90;102546.22;4222386;28;20040;-72
2021/11/20 00:51:42;;;;;;;5.43;3.53;;;;;;;13.60;55.97;102508.72;4222516;28;20043;-72
2021/11/20 00:53:44;;;;;;;5.43;3.45;;;;;;;13.96;55.81;102565.34;4222471;28;20058;-71
2021/11/20 00:55:47;;;;;;;6.30;3.33;;;;;;;14.00;56.05;102572.28;4222497;28;20059;-68
2021/11/20 00:57:51;;;;;;;5.13;3.28;;;;;;;13.96;55.92;102565.34;4222301;28;20067;-71
2021/11/20 00:59:54;;;;;;;5.68;3.72;;;;;;;14.20;55.96;102608.94;4217813;28;20071;-71
2021/11/20 01:01:59;;;;;;;5.50;3.00;;;;;;;14.09;56.09;102584.47;4222426;28;20110;-71
2021/11/20 01:04:03;;;;;;;5.93;3.38;;;;;;;13.80;55.86;102533.00;4222485;28;20332;-73
2021/11/20 01:06:06;;;;;;;4.97;3.05;;;;;;;14.06;55.86;102580.09;4222494;28;20050;-71
2021/11/20 01:08:11;;;;;;;6.10;3.35;;;;;;;14.09;55.86;102587.09;4222388;28;20044;-71
2021/11/20 01:10:16;;;;;;;5.38;2.90;;;;;;;14.15;55.93;102600.22;4222151;28;20081;-71
2021/11/20 01:12:23;;;;;;;5.53;3.15;;;;;;;14.02;56.23;102581.09;4222118;28;20409;-71
2021/11/20 01:14:27;;;;;;;4.88;3.25;;;;;;;14.15;56.21;102605.50;4222154;28;20089;-71
2021/11/20 01:16:30;;;;;;;5.38;2.90;;;;;;;13.94;55.82;102564.47;4222242;28;20063;-70
2021/11/20 01:18:32;;;;;;;5.13;3.30;;;;;;;14.06;55.97;102584.53;4221918;28;20071;-70
2021/11/20 01:20:35;;;;;;;5.05;3.08;;;;;;;13.44;55.75;102473.81;4221314;28;20121;-70
2021/11/20 01:22:38;;;;;;;4.80;3.00;;;;;;;13.66;55.89;102506.84;4221980;28;20044;-71
2021/11/20 01:24:42;;;;;;;5.45;2.95;;;;;;;14.13;56.16;102582.63;4221996;28;20114;-70
2021/11/20 01:26:45;;;;;;;5.32;3.05;;;;;;;13.80;56.13;102529.50;4222194;28;20072;-69
2021/11/20 01:28:54;;;;;;;4.55;2.80;;;;;;;13.52;55.85;102472.75;4221753;28;20047;-62
2021/11/20 01:30:57;;;;;;;4.85;2.75;;;;;;;13.98;56.24;102557.34;4221905;28;20044;-72
2021/11/20 01:33:00;;;;;;;5.00;2.45;;;;;;;14.01;56.05;102562.56;4221985;28;20068;-66
2021/11/20 01:35:03;;;;;;;5.38;3.00;;;;;;;13.97;56.32;102550.31;4221924;28;20077;-72
2021/11/20 01:37:07;;;;;;;5.13;2.83;;;;;;;14.06;56.29;102569.53;4222136;28;20052;-66
2021/11/20 01:39:16;;;;;;;6.18;3.25;;;;;;;13.84;55.83;102534.72;4221677;28;20052;-71
2021/11/20 01:41:19;;;;;;;5.28;3.10;;;;;;;13.74;56.13;102519.91;4220815;28;20078;-70
2021/11/20 01:43:22;;;;;;;4.55;2.70;;;;;;;13.47;55.92;102482.53;4221720;28;20048;-71
2021/11/20 01:45:31;;;;;;;4.50;2.90;;;;;;;13.65;55.98;102507.75;4221678;28;20044;-71
2021/11/20 01:47:45;;;;;;;5.50;2.53;;;;;;;13.64;56.19;102510.44;4221752;28;20051;-71
2021/11/20 01:49:54;;;;;;;5.50;2.92;;;;;;;13.65;56.39;102507.75;4221319;28;20270;-73
2021/11/20 01:52:03;;;;;;;5.13;2.90;;;;;;;14.06;56.28;102572.16;4221645;28;20044;-71
2021/11/20 01:54:19;;;;;;;5.10;2.80;;;;;;;14.05;56.01;102570.41;4221451;28;20078;-71
2021/11/20 01:56:36;;;;;;;4.70;2.40;;;;;;;13.88;55.94;102543.44;4221903;28;20216;-71
2021/11/20 01:58:51;;;;;;;5.68;3.00;;;;;;;14.04;55.98;102560.72;4221502;28;20065;-69
2021/11/20 02:00:59;;;;;;;4.63;2.63;;;;;;;14.03;56.29;102560.78;4220614;28;20043;-69
2021/11/20 02:03:11;;;;;;;5.18;2.88;;;;;;;14.03;56.09;102559.03;4221736;28;20093;-66
2021/11/20 02:05:27;;;;;;;5.03;2.80;;;;;;;13.62;56.27;102486.69;4221445;28;20048;-63
2021/11/20 02:07:57;;;;;;;5.05;3.10;;;;;;;14.03;56.45;102559.03;4221651;28;20081;-71
2021/11/20 02:10:35;;;;;;;5.97;2.70;;;;;;;14.03;56.10;102552.84;4221138;28;20044;-71
2021/11/20 02:12:49;;;;;;;4.60;2.55;;;;;;;13.75;56.10;102511.06;4210992;28;20125;-70
2021/11/20 02:14:52;;;;;;;4.53;2.70;;;;;;;13.61;56.28;102484.94;4221127;28;20324;-70
2021/11/20 02:16:57;;;;;;;;;;;;;;;14.01;56.07;102552.88;4221750;28;20066;-71
2021/11/20 02:19:02;;;;;;;4.57;2.72;;;;;;;13.68;56.05;102501.53;4221528;28;20208;-70
2021/11/20 02:21:14;;;;;;;5.20;2.90;;;;;;;14.02;56.18;102561.69;4221173;28;20332;-70
2021/11/20 02:23:16;;;;;;;5.03;2.60;;;;;;;14.00;56.04;102550.28;4204442;28;20045;-68
2021/11/20 02:25:20;;;;;;;4.25;2.55;;;;;;;14.01;56.42;102546.69;4212114;28;20043;-69
2021/11/20 02:27:23;;;;;;;4.80;2.90;;;;;;;13.45;56.21;102455.28;4221235;28;20387;-71
2021/11/20 02:29:25;;;;;;;4.80;2.80;;;;;;;13.72;56.35;102498.78;4221309;28;20040;-67
2021/11/20 02:31:27;;;;;;;5.25;2.88;;;;;;;13.64;56.48;102484.00;4220885;28;20093;-66
2021/11/20 02:33:37;;;;;;;5.25;2.90;;;;;;;13.74;56.37;102498.75;4221207;28;20064;-63
2021/11/20 02:35:50;;;;;;;5.07;2.58;;;;;;;13.67;56.52;102483.91;4220603;28;20060;-71
2021/11/20 02:37:52;;;;;;;6.53;3.17;;;;;;;13.52;56.11;102466.59;4221070;28;20044;-72
2021/11/20 02:39:55;;;;;;;4.60;2.67;;;;;;;13.98;56.46;102538.84;4220969;28;20325;-72
2021/11/20 02:41:59;;;;;;;;;;;;;;;13.97;56.60;102539.75;4221628;28;20088;-72
2021/11/20 02:44:04;;;;;;;5.55;3.13;;;;;;;13.63;56.64;102480.47;4221053;28;20085;-62
2021/11/20 02:46:09;;;;;;;5.45;3.10;;;;;;;13.70;56.22;102483.88;4221118;28;20039;-71
2021/11/20 02:48:12;;;;;;;5.10;3.00;;;;;;;13.53;56.29;102455.97;4220943;28;20340;-72
2021/11/20 02:50:15;;;;;;;5.90;3.17;;;;;;;13.86;56.18;102511.75;4220934;28;20327;-69
2021/11/20 02:52:19;;;;;;;5.20;2.83;;;;;;;13.41;56.55;102441.25;4220878;28;20063;-62
2021/11/20 02:54:27;;;;;;;5.13;2.88;;;;;;;13.52;56.49;102451.59;4220955;28;20332;-71
2021/11/20 02:56:42;;;;;;;4.85;2.85;;;;;;;13.41;56.19;102430.69;4220923;28;20035;-65
2021/11/20 02:58:44;;;;;;;5.97;3.70;;;;;;;13.88;56.53;102501.13;4221025;28;20051;-66
2021/11/20 03:00:49;;;;;;;4.90;3.00;;;;;;;13.56;56.69;102445.38;4216361;28;20101;-71
2021/11/20 03:02:51;;;;;;;5.63;3.30;;;;;;;13.58;56.45;102455.91;4217798;28;20040;-73
2021/11/20 03:04:53;;;;;;;;;;;;;;;13.94;56.20;102515.97;4221675;28;20048;-72
2021/11/20 03:06:58;;;;;;;6.20;3.40;;;;;;;13.33;56.48;102418.47;4220772;28;19916;-72
2021/11/20 03:09:00;;;;;;;5.82;3.30;;;;;;;13.67;56.68;102470.69;4221124;28;20048;-70
2021/11/20 03:11:04;;;;;;;5.57;3.25;;;;;;;13.69;56.30;102456.56;4220715;28;20043;-71
2021/11/20 03:13:06;;;;;;;5.53;2.90;;;;;;;13.67;56.43;102462.75;4220672;28;20075;-72
2021/11/20 03:15:09;;;;;;;5.25;3.13;;;;;;;13.67;56.64;102465.41;4220955;28;20051;-69
2021/11/20 03:17:11;;;;;;;5.50;3.30;;;;;;;13.91;56.49;102498.41;4220686;28;20330;-71
2021/11/20 03:19:14;;;;;;;;;;;;;;;13.91;56.78;102501.06;4221165;28;20328;-71
2021/11/20 03:21:17;;;;;;;5.65;3.10;;;;;;;13.47;56.70;102419.09;4220935;28;19961;-65
2021/11/20 03:23:25;;;;;;;5.90;3.25;;;;;;;13.91;56.70;102498.41;4220465;28;20061;-71
2021/11/20 03:25:28;;;;;;;5.78;3.65;;;;;;;13.48;56.50;102426.13;4220793;28;20066;-71
2021/11/20 03:27:30;;;;;;;6.50;3.70;;;;;;;13.90;56.34;102488.72;4220484;28;20328;-70
2021/11/20 03:29:33;;;;;;;;;;;;;;;13.89;56.43;102479.06;4221214;28;20097;-71
2021/11/20 03:31:35;;;;;;;;;;;;;;;13.88;56.59;102472.03;4221258;28;19961;-71
2021/11/20 03:33:38;;;;;;;;;;;;;;;13.87;56.55;102471.16;4220961;28;19916;-68
2021/11/20 03:35:41;;;;;;;6.95;3.83;;;;;;;13.58;56.88;102418.88;4203891;28;19916;-70
2021/11/20 03:37:44;;;;;;;6.25;3.67;;;;;;;13.23;56.54;102359.66;4211590;28;20040;-69
2021/11/20 03:39:46;;;;;;;7.05;3.60;;;;;;;13.78;56.31;102451.97;4220666;28;20262;-72
2021/11/20 03:41:48;;;;;;;;;;;;;;;13.86;56.74;102461.50;4220198;28;20068;-65
2021/11/20 03:43:51;;;;;;;6.40;3.88;;;;;;;13.29;56.45;102363.97;4221763;28;20105;-71
2021/11/20 03:45:53;;;;;;;;;;;;;;;13.86;56.47;102453.56;4222937;28;20060;-69
2021/11/20 03:47:55;;;;;;;6.35;4.03;;;;;;;13.59;56.35;102404.78;4223387;28;19954;-71
2021/11/20 03:49:58;;;;;;;5.90;3.50;;;;;;;13.42;56.33;102376.06;4226910;28;20081;-67
2021/11/20 03:52:00;;;;;;;5.93;3.35;;;;;;;13.37;56.47;102372.59;4223762;28;20101;-67
2021/11/20 03:54:04;;;;;;;5.90;3.90;;;;;;;13.85;56.77;102443.88;4223272;28;20044;-68
2021/11/20 03:56:06;;;;;;;6.32;3.90;;;;;;;13.15;56.38;102324.59;4223537;28;20043;-68
2021/11/20 03:58:10;;;;;;;6.80;4.22;;;;;;;13.74;56.55;102420.31;4223358;28;20058;-67
2021/11/20 04:00:16;;;;;;;6.63;3.80;;;;;;;13.29;56.54;102334.91;4216451;28;20060;-70
2021/11/20 04:02:18;;;;;;;5.93;3.70;;;;;;;13.50;56.89;102378.53;4223640;28;20210;-69
2021/11/20 04:04:21;;;;;;;6.60;4.07;;;;;;;13.36;56.72;102362.94;4223325;28;20040;-70
2021/11/20 04:06:24;;;;;;;6.65;4.13;;;;;;;13.14;56.55;102323.75;4223582;28;20080;-70
2021/11/20 04:08:27;;;;;;;7.15;3.75;;;;;;;13.22;56.64;102329.75;4223163;28;20097;-70
2021/11/20 04:10:30;;;;;;;6.53;3.80;;;;;;;13.57;56.59;102383.66;4216831;28;20148;-69
2021/11/20 04:12:33;;;;;;;6.68;3.95;;;;;;;13.82;56.56;102421.94;4222352;28;20078;-61
2021/11/20 04:14:35;;;;;;;6.43;3.80;;;;;;;13.33;56.50;102348.03;4223108;28;20082;-61
2021/11/20 04:16:38;;;;;;;6.35;3.67;;;;;;;13.71;56.63;102406.28;4223229;28;20066;-69
2021/11/20 04:18:42;;;;;;;5.93;3.53;;;;;;;13.54;56.50;102375.78;4223016;28;20044;-69
2021/11/20 04:20:45;;;;;;;6.68;3.83;;;;;;;13.33;56.58;102337.44;4222941;28;20066;-69
2021/11/20 04:22:48;;;;;;;6.63;3.97;;;;;;;13.81;56.60;102413.09;4223163;28;20055;-72
2021/11/20 04:24:50;;;;;;;6.25;3.65;;;;;;;13.18;56.62;102303.41;4222982;28;20066;-65
2021/11/20 04:26:52;;;;;;;;;;;;;;;13.80;56.42;102406.06;4222274;28;20065;-72
2021/11/20 04:28:55;;;;;;;5.85;3.83;;;;;;;13.67;56.59;102384.34;4222937;28;19916;-72
2021/11/20 04:30:57;;;;;;;6.93;3.90;;;;;;;13.28;56.40;102312.91;4222923;28;20071;-73
2021/11/20 04:32:59;;;;;;;6.32;3.63;;;;;;;13.54;56.57;102356.44;4223110;28;20341;-72
2021/11/20 04:35:02;;;;;;;;;;;;;;;13.77;56.73;102400.88;4223281;28;20044;-69
2021/11/20 04:37:04;;;;;;;5.78;3.50;;;;;;;13.36;56.84;102329.44;4222658;28;19935;-70
2021/11/20 04:39:07;;;;;;;6.10;3.80;;;;;;;13.36;56.58;102324.16;4222904;28;20161;-71
2021/11/20 04:41:09;;;;;;;6.03;3.80;;;;;;;13.65;56.75;102369.41;4222895;28;20542;-69
2021/11/20 04:43:12;;;;;;;7.40;3.72;;;;;;;13.15;56.65;102282.31;4222886;28;20044;-64
2021/11/20 04:45:17;;;;;;;5.95;3.33;;;;;;;13.77;56.73;102398.22;4222741;28;20456;-69
2021/11/20 04:47:19;;;;;;;6.38;3.85;;;;;;;13.76;56.44;102401.75;4222819;28;20040;-70
2021/11/20 04:49:21;;;;;;;;;;;;;;;13.76;56.63;102400.91;4222880;28;20236;-68
2021/11/20 04:51:25;;;;;;;5.47;3.22;;;;;;;13.17;56.56;102299.03;4222589;28;19923;-70
2021/11/20 04:53:29;;;;;;;5.60;3.28;;;;;;;13.76;56.52;102399.13;4222752;28;20389;-70
2021/11/20 04:55:32;;;;;;;5.47;3.40;;;;;;;13.72;56.86;102385.09;4222552;28;20044;-67
2021/11/20 04:57:34;;;;;;;5.80;3.50;;;;;;;13.39;56.62;102331.16;4222589;28;20044;-70
2021/11/20 04:59:37;;;;;;;5.55;3.20;;;;;;;13.30;56.67;102312.84;4222323;28;20063;-68
2021/11/20 05:01:40;;;;;;;5.93;3.40;;;;;;;13.09;56.56;102281.56;4221498;28;20112;-64
2021/11/20 05:03:43;;;;;;;5.78;3.30;;;;;;;13.47;56.39;102333.66;4222503;28;20328;-70
2021/11/20 05:05:47;;;;;;;6.32;3.13;;;;;;;13.73;56.66;102383.31;4222352;28;20048;-69
2021/11/20 05:07:49;;;;;;;6.22;2.97;;;;;;;13.74;56.73;102382.41;4222384;28;20051;-69
2021/11/20 05:09:55;;;;;;;5.00;2.63;;;;;;;13.07;56.71;102267.53;4222263;28;20374;-68
2021/11/20 05:11:57;;;;;;;5.30;2.83;;;;;;;13.20;56.75;102291.06;4222295;28;20103;-70
2021/11/20 05:14:01;;;;;;;4.80;2.60;;;;;;;13.73;56.70;102383.31;4221196;28;20235;-70
2021/11/20 05:16:04;;;;;;;4.65;2.65;;;;;;;13.62;56.37;102365.06;4222236;28;20144;-67
2021/11/20 05:18:06;;;;;;;4.82;2.67;;;;;;;13.64;56.94;102362.38;4222328;28;20070;-68
2021/11/20 05:20:09;;;;;;;5.45;2.45;;;;;;;13.33;56.71;102308.38;4222074;28;20074;-70
2021/11/20 05:22:11;;;;;;;5.63;2.95;;;;;;;13.20;56.49;102285.78;4221981;28;20228;-65
2021/11/20 05:24:13;;;;;;;;;;;;;;;13.69;56.75;102368.44;4222592;28;20294;-68
2021/11/20 05:26:18;;;;;;;4.25;2.42;;;;;;;13.69;56.61;102381.66;4222099;28;19942;-69
2021/11/20 05:28:20;;;;;;;4.82;2.70;;;;;;;13.00;56.71;102254.47;4222101;28;20093;-70
2021/11/20 05:30:32;;;;;;;4.47;2.22;;;;;;;13.69;56.71;102374.59;4222315;28;20059;-64
2021/11/20 05:32:35;;;;;;;4.32;2.22;;;;;;;13.01;56.65;102261.50;4221766;28;20386;-70
2021/11/20 05:34:37;;;;;;;4.22;2.20;;;;;;;13.37;56.67;102322.41;4205212;28;20044;-67
2021/11/20 05:36:39;;;;;;;4.05;2.25;;;;;;;13.69;56.67;102369.31;4212414;28;20067;-69
2021/11/20 05:38:42;;;;;;;4.13;2.40;;;;;;;13.33;56.28;102313.66;4222016;28;20272;-64
2021/11/20 05:40:46;;;;;;;4.15;1.90;;;;;;;13.48;56.78;102325.69;4222008;28;20060;-70
2021/11/20 05:42:54;;;;;;;4.30;2.03;;;;;;;13.11;56.57;102268.34;4221606;28;20043;-65
2021/11/20 05:44:56;;;;;;;3.65;1.88;;;;;;;13.58;56.61;102350.16;4222066;28;20048;-70
2021/11/20 05:46:59;;;;;;;;;;;;;;;13.67;56.46;102362.28;4222090;28;20077;-70
2021/11/20 05:49:01;;;;;;;4.07;2.00;;;;;;;13.65;56.84;102354.41;4221636;28;20150;-67
2021/11/20 05:51:03;;;;;;;;;;;;;;;13.65;56.94;102354.41;4222236;28;20059;-69
2021/11/20 05:53:11;;;;;;;4.10;1.77;;;;;;;13.30;56.89;102303.16;4221505;28;19916;-70
2021/11/20 05:55:15;;;;;;;3.72;2.00;;;;;;;13.24;56.73;102284.78;4221674;28;20066;-70
2021/11/20 05:57:19;;;;;;;4.20;1.77;;;;;;;13.29;56.59;102306.69;4221474;28;20040;-70
2021/11/20 05:59:21;;;;;;;3.65;1.90;;;;;;;13.09;56.52;102263.06;4218676;28;20057;-71
2021/11/20 06:01:25;;;;;;;3.22;1.70;;;;;;;13.63;56.60;102358.84;4220711;28;20063;-69
2021/11/20 06:03:28;;;;;;;3.47;1.70;;;;;;;12.91;56.63;102240.56;4221382;28;20059;-65
2021/11/20 06:05:32;;;;;;;3.53;1.60;;;;;;;13.29;56.90;102303.19;4221579;28;20044;-72
2021/11/20 06:07:35;;;;;;;5.78;1.77;;;;;;;13.62;56.73;102362.41;4220999;28;20051;-65
2021/11/20 06:09:41;;;;;;;3.15;1.73;;;;;;;13.35;56.44;102318.91;4221526;28;20039;-69
2021/11/20 06:11:43;;;;;;;3.92;1.88;;;;;;;13.59;56.66;102359.84;4221638;28;20103;-69
2021/11/20 06:13:46;;;;;;;3.33;1.65;;;;;;;13.14;56.52;102286.75;4221435;28;20100;-69
2021/11/20 06:15:50;;;;;;;3.35;1.60;;;;;;;13.53;56.70;102346.75;4221383;28;20048;-67
2021/11/20 06:17:53;;;;;;;3.35;1.50;;;;;;;13.24;56.56;102305.91;4221332;28;20044;-67
2021/11/20 06:19:55;;;;;;;2.90;1.40;;;;;;;12.92;56.55;102252.00;4221541;28;20036;-66
2021/11/20 06:21:57;;;;;;;;;;;;;;;13.58;56.60;102356.34;4221892;28;20051;-72
2021/11/20 06:23:59;;;;;;;;;;;;;;;13.57;56.57;102357.22;4221788;28;19954;-70
2021/11/20 06:26:03;;;;;;;2.80;1.52;;;;;;;13.40;56.84;102327.63;4221447;28;19961;-70
2021/11/20 06:28:05;;;;;;;3.25;1.70;;;;;;;13.00;56.80;102257.13;4221221;28;20040;-70
2021/11/20 06:30:12;;;;;;;3.60;1.80;;;;;;;13.33;56.39;102315.41;4221364;28;20063;-69
2021/11/20 06:32:14;;;;;;;2.95;1.40;;;;;;;13.22;56.54;102300.69;4221408;28;20044;-70
2021/11/20 06:34:18;;;;;;;3.22;1.50;;;;;;;13.20;56.33;102293.69;4221239;28;20059;-69
2021/11/20 06:36:22;;;;;;;2.70;1.42;;;;;;;13.27;56.71;102312.00;4221097;28;20122;-70
2021/11/20 06:38:26;;;;;;;2.83;1.45;;;;;;;12.89;56.84;102237.09;4221227;28;20081;-70
2021/11/20 06:40:31;;;;;;;2.95;1.60;;;;;;;13.10;56.73;102287.72;4221290;28;20093;-70
2021/11/20 06:42:34;;;;;;;3.22;1.70;;;;;;;13.46;56.58;102345.13;4221334;28;20407;-70
2021/11/20 06:44:36;;;;;;;2.70;1.30;;;;;;;13.31;56.72;102325.19;4221246;28;20090;-70
2021/11/20 06:46:38;;;;;;;3.17;1.70;;;;;;;13.13;56.50;102298.22;4221411;28;20070;-70
2021/11/20 06:48:41;;;;;;;;;;;;;;;13.53;56.58;102360.81;4221570;28;20164;-67
2021/11/20 06:50:44;;;;;;;2.80;1.60;;;;;;;13.37;56.47;102343.53;4221273;28;19962;-67
2021/11/20 06:52:46;;;;;;;3.22;1.60;;;;;;;13.44;56.47;102346.94;4221323;28;20101;-68
2021/11/20 06:54:49;;;;;;;3.28;1.33;;;;;;;12.97;56.60;102268.63;4221178;28;20044;-67
2021/11/20 06:57:04;;;;;;;2.33;1.30;;;;;;;12.88;56.63;102251.19;4221272;28;20044;-69
2021/11/20 07:01:14;;;;;;;2.97;1.30;;;;;;;12.99;56.82;102258.91;4218240;28;20040;-67
2021/11/20 07:03:24;;;;;;;4.07;1.70;;;;;;;13.53;56.48;102346.75;4221210;28;20336;-65
2021/11/20 07:05:28;;;;;;;2.85;1.50;;;;;;;13.14;56.81;102280.63;4221001;28;20074;-71
2021/11/20 07:07:34;;;;;;;3.28;1.70;;;;;;;13.29;56.66;102311.13;4220082;28;20048;-67
2021/11/20 07:09:37;;;;;;;3.70;1.50;;;;;;;13.08;56.82;102276.31;4220901;28;20040;-67
2021/11/20 07:11:40;;;;;;;2.80;1.50;;;;;;;13.43;56.92;102327.56;4221220;28;20044;-70
2021/11/20 07:13:43;;;;;;;2.97;1.60;;;;;;;13.14;56.70;102277.97;4221179;28;20054;-70
2021/11/20 07:15:45;;;;;;;4.05;2.08;;;;;;;13.31;56.56;102309.31;4220952;28;20040;-69
2021/11/20 07:17:48;;;;;;;3.33;1.63;;;;;;;13.26;56.80;102296.19;4221310;28;20336;-69
2021/11/20 07:19:50;;;;;;;2.80;1.67;;;;;;;13.22;56.38;102289.22;4223852;28;20044;-70
2021/11/20 07:21:52;;;;;;;;;;;;;;;13.48;56.77;102344.19;4213463;28;20044;-66
2021/11/20 07:23:57;;;;;;;2.88;1.45;;;;;;;13.12;56.63;102283.28;4224333;28;19940;-67
2021/11/20 07:26:00;;;;;;;3.63;1.80;;;;;;;13.32;56.56;102317.22;4223879;28;20075;-69
2021/11/20 07:28:04;;;;;;;3.60;1.90;;;;;;;13.29;56.55;102309.31;4224281;28;20044;-69
2021/11/20 07:30:08;;;;;;;3.28;1.70;;;;;;;13.10;56.47;102288.59;4224261;28;20052;-63
2021/11/20 07:32:11;;;;;;;3.00;1.40;;;;;;;13.47;56.68;102346.88;4224248;28;20321;-68
2021/11/20 07:34:13;;;;;;;3.33;1.77;;;;;;;13.13;56.42;102287.66;4224116;28;20056;-69
2021/11/20 07:36:16;;;;;;;3.40;1.80;;;;;;;13.35;56.34;102327.69;4223760;28;20060;-69
2021/11/20 07:38:25;;;;;;;3.08;1.63;;;;;;;13.13;56.67;102295.59;4224001;28;20343;-70
2021/11/20 07:40:30;;;;;;;3.72;1.77;;;;;;;13.14;56.47;102299.97;4223872;28;20110;-69
2021/11/20 07:42:32;;;;;;;4.30;1.85;;;;;;;13.46;56.41;102353.06;4223844;28;20047;-70
2021/11/20 07:44:34;;;;;;;3.40;1.80;;;;;;;13.21;56.70;102313.94;4223922;28;20055;-68
2021/11/20 07:46:37;;;;;;;3.03;1.63;;;;;;;13.18;56.79;102304.28;4223672;28;20044;-63
2021/11/20 07:48:40;;;;;;;3.67;1.70;;;;;;;13.20;56.72;102313.03;4223775;28;20051;-70
2021/11/20 07:50:44;;;;;;;3.90;1.85;;;;;;;13.44;56.93;102355.75;4223548;28;20068;-63
2021/11/20 07:52:48;;;;;;;3.30;1.80;;;;;;;13.05;56.46;102293.09;4223671;28;20063;-70
2021/11/20 07:54:50;;;;;;;4.10;2.00;;;;;;;13.05;56.96;102287.81;4223765;28;20044;-63
2021/11/20 07:56:52;;;;;;;3.40;1.70;;;;;;;13.34;56.72;102327.72;4223319;28;20040;-67
2021/11/20 07:58:57;;;;;;;4.20;1.73;;;;;;;13.10;56.81;102298.31;4223527;28;20044;-66
2021/11/20 08:01:00;;;;;;;3.17;1.90;;;;;;;13.44;56.70;102352.22;4218798;28;20071;-70
2021/11/20 08:03:04;;;;;;;3.83;2.00;;;;;;;12.98;56.63;102280.94;4223396;28;20051;-68
2021/11/20 08:05:08;;;;;;;3.30;1.90;;;;;;;13.28;56.71;102331.41;4223760;28;20103;-71
2021/11/20 08:07:10;;;;;;;3.15;1.60;;;;;;;13.14;56.76;102305.25;4223434;28;20039;-71
2021/11/20 08:09:12;;;;;;;;;;;;;;;13.41;56.74;102350.53;4223735;28;20051;-74
2021/11/20 08:11:15;;;;;;;3.28;1.83;;;;;;;12.78;56.78;102244.34;4223000;28;20104;-66
2021/11/20 08:13:17;;;;;;;3.80;2.00;;;;;;;12.77;56.56;102243.50;4223352;28;20052;-68
2021/11/20 08:15:20;;;;;;;3.78;1.92;;;;;;;13.41;56.73;102347.88;4223364;28;20333;-69
2021/11/20 08:17:23;;;;;;;3.60;1.90;;;;;;;12.73;56.65;102230.38;4223036;28;20040;-69
2021/11/20 08:19:25;;;;;;;4.05;2.20;;;;;;;12.68;56.77;102216.41;4223174;28;20054;-69
2021/11/20 08:21:28;;;;;;;4.88;2.10;;;;;;;13.41;56.66;102346.13;4223090;28;20059;-69
2021/11/20 08:23:32;;;;;;;4.95;2.05;;;;;;;12.80;56.56;102242.56;4222119;28;20090;-69
2021/11/20 08:25:34;;;;;;;3.78;1.90;;;;;;;13.35;56.56;102343.53;4223451;28;20064;-69
2021/11/20 08:27:37;;;;;;;4.25;2.20;;;;;;;13.05;56.81;102286.94;4222873;28;20231;-71
2021/11/20 08:29:40;;;;;;;4.07;2.40;;;;;;;13.07;56.66;102290.44;4222584;28;20435;-62
2021/11/20 08:31:46;;;;;;;4.43;2.28;;;;;;;13.13;56.79;102297.38;4222906;28;20067;-67
2021/11/20 08:33:49;;;;;;;4.65;2.20;;;;;;;12.76;56.68;102230.34;4222791;28;20138;-71
2021/11/20 08:35:51;;;;;;;3.35;1.90;;;;;;;13.05;56.85;102276.38;4222908;28;20256;-68
2021/11/20 08:37:55;;;;;;;4.07;2.08;;;;;;;13.24;56.62;102301.53;4222940;28;20093;-69
2021/11/20 08:39:58;;;;;;;3.58;1.90;;;;;;;13.25;56.66;102307.66;4221717;28;20052;-71
2021/11/20 08:42:01;;;;;;;3.30;1.80;;;;;;;13.15;56.70;102287.63;4222733;28;20105;-71
2021/11/20 08:44:04;;;;;;;3.88;1.98;;;;;;;12.98;56.57;102266.84;4221647;28;20056;-72
2021/11/20 08:46:07;;;;;;;4.22;2.05;;;;;;;12.89;56.52;102242.38;4222769;28;20105;-71
2021/11/20 08:48:15;;;;;;;4.38;2.30;;;;;;;13.40;56.68;102325.00;4222593;28;20046;-64
2021/11/20 08:50:22;;;;;;;5.10;2.60;;;;;;;13.32;56.50;102292.53;4222627;28;20343;-69
2021/11/20 08:52:24;;;;;;;3.95;2.08;;;;;;;13.06;56.58;102257.88;4222729;28;20131;-64
2021/11/20 08:54:27;;;;;;;;;;;;;;;13.39;56.70;102305.63;4223094;28;20047;-70
2021/11/20 08:56:31;;;;;;;4.68;2.35;;;;;;;13.03;56.71;102244.72;4222752;28;19916;-72
2021/11/20 08:58:35;;;;;;;3.85;2.20;;;;;;;12.75;56.88;102196.91;4222453;28;20221;-72
2021/11/20 09:00:52;;;;;;;4.20;2.20;;;;;;;12.96;56.84;102224.63;4218343;28;20043;-71
2021/11/20 09:03:03;;;;;;;4.20;2.30;;;;;;;13.36;56.88;102295.09;4222411;28;20318;-72
2021/11/20 09:05:08;;;;;;;4.13;2.33;;;;;;;13.38;56.69;102297.75;4222728;28;20069;-71
2021/11/20 09:07:14;;;;;;;4.00;2.20;;;;;;;13.38;56.61;102297.75;4222368;28;20063;-68
2021/11/20 09:09:19;;;;;;;4.28;2.20;;;;;;;13.24;56.80;102272.47;4222105;28;20048;-67
2021/11/20 09:11:40;;;;;;;4.95;2.40;;;;;;;13.27;56.90;102277.66;4222293;28;20075;-65
2021/11/20 09:13:56;;;;;;;4.60;2.55;;;;;;;13.05;56.83;102234.13;4222111;28;20040;-66
2021/11/20 09:16:05;;;;;;;4.72;2.42;;;;;;;12.75;56.75;102189.00;4222287;28;20071;-71
2021/11/20 09:18:07;;;;;;;4.32;2.33;;;;;;;13.35;56.94;102287.19;4222577;28;20040;-71
2021/11/20 09:20:11;;;;;;;4.63;2.58;;;;;;;12.83;56.72;102196.75;4222095;28;20332;-72
2021/11/20 09:22:13;;;;;;;4.35;2.58;;;;;;;13.04;56.76;102229.75;4205335;28;20108;-72
2021/11/20 09:24:16;;;;;;;4.97;2.80;;;;;;;13.34;56.54;102286.34;4212976;28;20043;-70
2021/11/20 09:26:19;;;;;;;4.63;2.60;;;;;;;12.91;56.86;102208.00;4222042;28;20100;-71
2021/11/20 09:28:29;;;;;;;4.47;2.55;;;;;;;13.19;56.69;102254.97;4221015;28;20138;-71
2021/11/20 09:30:34;;;;;;;4.85;2.78;;;;;;;13.33;56.75;102279.31;4221794;28;20046;-71
2021/11/20 09:32:37;;;;;;;4.95;2.78;;;;;;;13.34;56.94;102277.53;4205234;28;20052;-71
2021/11/20 09:34:39;;;;;;;6.38;2.80;;;;;;;12.93;56.42;102212.34;4213301;28;20043;-71
2021/11/20 09:36:47;;;;;;;5.07;2.60;;;;;;;12.76;56.86;102185.47;4221735;28;20052;-64
2021/11/20 09:38:50;;;;;;;5.50;2.75;;;;;;;12.80;56.87;102189.75;4221986;28;20089;-72
2021/11/20 09:40:59;;;;;;;5.70;3.08;;;;;;;12.99;56.55;102218.41;4220888;28;20043;-68
2021/11/20 09:43:04;;;;;;;5.20;3.33;;;;;;;13.31;56.81;102269.69;4204966;28;20185;-72
2021/11/20 09:45:33;;;;;;;4.65;2.60;;;;;;;13.30;56.67;102271.44;4213818;28;20043;-65
2021/11/20 09:47:45;;;;;;;5.28;2.92;;;;;;;12.67;56.70;102168.00;4211338;28;20059;-66